createdAt,value
2019-01-29T00:01:50.800Z,6.25
2019-01-29T00:05:55.432Z,6.35
2019-01-29T00:09:59.970Z,6.43
2019-01-29T00:14:04.803Z,6.80
2019-01-29T00:18:09.335Z,6.90
2019-01-29T00:22:13.855Z,7.33
2019-01-29T00:26:18.362Z,7.53
2019-01-29T00:30:24.567Z,6.95
2019-01-29T00:34:29.370Z,7.40
2019-01-29T00:38:33.889Z,6.28
2019-01-29T00:42:38.459Z,7.17
2019-01-29T00:46:42.983Z,6.80
2019-01-29T00:50:47.515Z,7.03
2019-01-29T00:54:52.036Z,7.27
2019-01-29T00:58:56.562Z,7.00
2019-01-29T01:03:01.097Z,7.85
2019-01-29T01:07:05.725Z,7.42
2019-01-29T01:11:10.906Z,6.70
2019-01-29T01:15:15.750Z,7.08
2019-01-29T01:19:20.323Z,6.92
2019-01-29T01:23:24.827Z,7.50
2019-01-29T01:27:29.343Z,6.80
2019-01-29T01:31:33.873Z,6.28
2019-01-29T01:35:38.395Z,6.80
2019-01-29T01:39:42.959Z,6.78
2019-01-29T01:43:47.528Z,7.30
2019-01-29T01:47:52.073Z,7.28
2019-01-29T01:51:56.626Z,7.17
2019-01-29T01:56:01.166Z,6.83
2019-01-29T02:00:06.779Z,7.15
2019-01-29T02:04:11.308Z,6.65
2019-01-29T02:08:15.833Z,6.87
2019-01-29T02:12:20.350Z,7.00
2019-01-29T02:16:24.891Z,7.00
2019-01-29T02:20:29.411Z,6.47
2019-01-29T02:24:33.888Z,6.40
2019-01-29T02:28:38.422Z,6.62
2019-01-29T02:32:42.949Z,6.53
2019-01-29T02:55:24.991Z,6.13
2019-01-29T03:07:34.983Z,5.62
2019-01-29T03:11:39.526Z,5.60
2019-01-29T03:18:29.429Z,6.17
2019-01-29T03:22:33.947Z,4.93
2019-01-29T03:42:38.160Z,5.42
2019-01-29T04:16:32.130Z,3.87
2019-01-29T04:20:36.631Z,3.60
2019-01-29T04:24:41.175Z,3.40
2019-01-29T04:28:55.971Z,3.52
2019-01-29T05:02:23.106Z,3.73
2019-01-29T05:06:27.583Z,3.93
2019-01-29T05:10:32.119Z,4.00
2019-01-29T05:14:36.664Z,4.00
2019-01-29T05:18:41.198Z,4.62
2019-01-29T05:22:45.834Z,4.17
2019-01-29T05:26:50.321Z,4.63
2019-01-29T05:30:54.876Z,4.35
2019-01-29T05:34:59.410Z,4.87
2019-01-29T05:39:06.351Z,5.10
2019-01-29T05:43:10.839Z,5.15
2019-01-29T05:54:17.579Z,5.53
2019-01-29T06:09:59.823Z,5.07
2019-01-29T07:05:37.840Z,5.58
2019-01-29T07:15:40.425Z,5.15
2019-01-29T08:55:47.827Z,8.83
2019-01-29T10:02:34.583Z,9.90
2019-01-29T10:10:32.712Z,10.63
2019-01-29T10:14:37.223Z,11.80
2019-01-29T10:18:41.751Z,11.40
2019-01-29T10:22:46.287Z,10.83
2019-01-29T10:26:50.819Z,11.05
2019-01-29T10:30:55.715Z,10.60
2019-01-29T10:36:15.339Z,11.22
2019-01-29T10:40:21.508Z,11.00
2019-01-29T10:46:54.102Z,11.73
2019-01-29T10:50:58.809Z,11.80
2019-01-29T11:02:09.388Z,10.98
2019-01-29T11:11:08.096Z,9.50
2019-01-29T11:15:16.242Z,9.03
2019-01-29T11:26:11.919Z,10.35
2019-01-29T11:55:20.450Z,11.75
2019-01-29T12:02:54.154Z,11.90
2019-01-29T12:10:44.224Z,12.88
2019-01-29T12:14:56.004Z,13.03
2019-01-29T12:18:59.638Z,14.55
2019-01-29T12:23:04.513Z,15.80
2019-01-29T12:27:09.093Z,14.60
2019-01-29T12:34:16.614Z,15.80
2019-01-29T12:38:21.105Z,15.13
2019-01-29T12:42:25.672Z,15.38
2019-01-29T12:46:30.214Z,17.12
2019-01-29T12:50:34.935Z,16.05
2019-01-29T12:54:39.474Z,16.43
2019-01-29T12:58:43.971Z,14.95
2019-01-29T13:02:48.518Z,16.35
2019-01-29T13:06:53.040Z,16.57
2019-01-29T13:10:57.570Z,16.65
2019-01-29T13:15:02.101Z,17.25
2019-01-29T13:19:06.607Z,21.77
2019-01-29T13:23:11.124Z,15.48
2019-01-29T13:27:15.673Z,15.93
2019-01-29T13:31:20.215Z,16.90
2019-01-29T13:35:26.755Z,16.37
2019-01-29T13:39:31.260Z,15.78
2019-01-29T13:43:35.827Z,16.87
2019-01-29T13:47:40.360Z,17.75
2019-01-29T13:51:44.895Z,17.25
2019-01-29T13:55:49.423Z,15.43
2019-01-29T13:59:53.919Z,14.05
2019-01-29T14:04:05.965Z,15.25
2019-01-29T14:08:04.876Z,14.47
2019-01-29T14:12:09.629Z,22.50
2019-01-29T14:16:15.003Z,14.93
2019-01-29T14:20:19.550Z,16.50
2019-01-29T14:24:24.080Z,15.43
2019-01-29T14:28:28.599Z,20.80
2019-01-29T14:32:33.142Z,18.40
2019-01-29T14:36:37.663Z,16.57
2019-01-29T14:40:42.151Z,14.60
2019-01-29T14:44:50.667Z,14.70
2019-01-29T14:48:55.211Z,14.75
2019-01-29T14:52:59.745Z,15.27
2019-01-29T14:57:04.371Z,14.73
2019-01-29T15:01:09.079Z,20.40
2019-01-29T15:05:13.691Z,25.40
2019-01-29T15:09:18.211Z,28.63
2019-01-29T15:13:22.849Z,16.62
2019-01-29T15:17:33.331Z,28.45
2019-01-29T15:21:38.272Z,18.40
2019-01-29T15:26:51.287Z,16.37
2019-01-29T15:30:55.826Z,16.73
2019-01-29T15:39:39.745Z,15.75
2019-01-29T15:43:44.303Z,16.33
2019-01-29T15:47:48.857Z,14.00
2019-01-29T16:05:56.822Z,18.27
2019-01-29T16:11:22.138Z,17.23
2019-01-29T16:17:31.658Z,16.65
2019-01-29T16:21:36.204Z,16.93
2019-01-29T16:25:41.239Z,15.25
2019-01-29T16:29:45.784Z,16.35
2019-01-29T16:33:51.409Z,16.10
2019-01-29T16:37:55.891Z,16.12
2019-01-29T16:48:56.067Z,13.48
2019-01-29T17:02:58.239Z,17.67
2019-01-29T17:08:13.242Z,16.85
2019-01-29T17:12:20.805Z,14.80
2019-01-29T17:16:25.338Z,14.07
2019-01-29T17:20:32.259Z,14.60
2019-01-29T17:32:37.706Z,13.32
2019-01-29T18:17:10.563Z,12.00
2019-01-29T18:30:13.379Z,11.50
2019-01-29T18:34:17.915Z,11.35
2019-01-29T18:38:22.467Z,10.13
2019-01-29T18:42:27.033Z,10.45
2019-01-29T18:46:31.524Z,10.60
2019-01-29T18:50:36.044Z,10.75
2019-01-29T19:24:11.951Z,9.83
2019-01-29T20:00:46.697Z,8.98
2019-01-29T20:04:53.657Z,9.25
2019-01-29T20:12:34.278Z,9.23
2019-01-29T21:21:12.203Z,10.33
2019-01-29T21:52:59.319Z,9.80
2019-01-29T21:57:03.814Z,9.73
2019-01-29T22:01:08.355Z,9.20
2019-01-29T22:05:12.927Z,9.77
2019-01-29T22:09:17.451Z,9.88
2019-01-29T22:13:22.082Z,9.30
2019-01-29T22:17:26.614Z,9.63
2019-01-29T22:21:31.140Z,10.00
2019-01-29T22:25:35.926Z,9.23
2019-01-29T22:29:40.603Z,10.53
2019-01-29T22:33:45.118Z,10.17
2019-01-29T22:37:49.652Z,10.55
2019-01-29T22:41:54.200Z,10.13
2019-01-29T22:45:58.847Z,10.38
2019-01-29T22:50:03.339Z,10.50
2019-01-29T22:54:07.871Z,11.15
2019-01-29T22:58:12.402Z,11.07
2019-01-29T23:02:16.923Z,11.18
2019-01-29T23:06:31.527Z,11.60
2019-01-29T23:10:36.043Z,12.68
2019-01-29T23:14:40.572Z,11.73
2019-01-29T23:18:45.090Z,11.70
2019-01-29T23:22:49.632Z,11.83
2019-01-29T23:26:54.180Z,11.70
2019-01-29T23:30:58.712Z,12.65
2019-01-29T23:35:03.286Z,12.80
2019-01-29T23:39:09.519Z,11.73
2019-01-29T23:43:14.087Z,11.80
2019-01-29T23:47:18.578Z,11.78
2019-01-29T23:51:23.112Z,11.60
2019-01-29T23:55:27.663Z,10.43
2019-01-29T23:59:32.202Z,9.97
